sensor_id;sensor_type;location;lat;lon;timestamp;P1;durP1;ratioP1;P2;durP2;ratioP2
39176;SDS011;24904;52.208;21.192;2022-12-16T00:03:28;45.00;;;23.80;;
39176;SDS011;24904;52.208;21.192;2022-12-16T00:08:34;49.30;;;26.20;;
39176;SDS011;24904;52.208;21.192;2022-12-16T00:13:40;54.00;;;26.30;;
39176;SDS011;24904;52.208;21.192;2022-12-16T00:18:45;52.50;;;26.00;;
39176;SDS011;24904;52.208;21.192;2022-12-16T00:23:50;55.20;;;28.00;;
39176;SDS011;24904;52.208;21.192;2022-12-16T00:28:56;49.30;;;25.50;;
39176;SDS011;24904;52.208;21.192;2022-12-16T00:34:01;51.50;;;25.20;;
39176;SDS011;24904;52.208;21.192;2022-12-16T00:39:06;54.30;;;27.20;;
39176;SDS011;24904;52.208;21.192;2022-12-16T00:44:11;58.90;;;27.50;;
39176;SDS011;24904;52.208;21.192;2022-12-16T00:49:16;56.00;;;26.00;;
39176;SDS011;24904;52.208;21.192;2022-12-16T00:54:21;56.70;;;25.40;;
39176;SDS011;24904;52.208;21.192;2022-12-16T00:59:26;46.80;;;23.50;;
39176;SDS011;24904;52.208;21.192;2022-12-16T01:04:31;49.10;;;24.90;;
39176;SDS011;24904;52.208;21.192;2022-12-16T01:09:36;51.50;;;24.50;;
39176;SDS011;24904;52.208;21.192;2022-12-16T01:14:41;53.50;;;26.10;;
39176;SDS011;24904;52.208;21.192;2022-12-16T01:19:46;47.90;;;24.40;;
39176;SDS011;24904;52.208;21.192;2022-12-16T01:24:51;50.70;;;23.80;;
39176;SDS011;24904;52.208;21.192;2022-12-16T01:29:56;53.00;;;25.40;;
39176;SDS011;24904;52.208;21.192;2022-12-16T01:35:01;55.50;;;25.00;;
39176;SDS011;24904;52.208;21.192;2022-12-16T01:40:08;49.40;;;24.50;;
39176;SDS011;24904;52.208;21.192;2022-12-16T01:45:32;52.90;;;28.00;;
39176;SDS011;24904;52.208;21.192;2022-12-16T01:50:38;48.30;;;25.50;;
39176;SDS011;24904;52.208;21.192;2022-12-16T01:55:44;51.90;;;25.20;;
39176;SDS011;24904;52.208;21.192;2022-12-16T02:00:53;49.80;;;23.30;;
39176;SDS011;24904;52.208;21.192;2022-12-16T02:05:58;56.20;;;25.80;;
39176;SDS011;24904;52.208;21.192;2022-12-16T02:11:08;56.20;;;26.00;;
39176;SDS011;24904;52.208;21.192;2022-12-16T02:16:24;49.60;;;24.80;;
39176;SDS011;24904;52.208;21.192;2022-12-16T02:32:36;49.30;;;23.60;;
39176;SDS011;24904;52.208;21.192;2022-12-16T02:37:50;52.90;;;23.70;;
39176;SDS011;24904;52.208;21.192;2022-12-16T02:43:02;50.00;;;23.00;;
39176;SDS011;24904;52.208;21.192;2022-12-16T02:48:11;53.10;;;23.60;;
39176;SDS011;24904;52.208;21.192;2022-12-16T02:53:16;47.90;;;23.10;;
39176;SDS011;24904;52.208;21.192;2022-12-16T02:58:23;51.50;;;25.60;;
39176;SDS011;24904;52.208;21.192;2022-12-16T03:03:35;49.10;;;25.00;;
39176;SDS011;24904;52.208;21.192;2022-12-16T03:08:47;48.20;;;23.10;;
39176;SDS011;24904;52.208;21.192;2022-12-16T03:13:56;56.50;;;25.30;;
39176;SDS011;24904;52.208;21.192;2022-12-16T03:19:03;47.10;;;22.60;;
39176;SDS011;24904;52.208;21.192;2022-12-16T03:24:12;48.30;;;23.40;;
39176;SDS011;24904;52.208;21.192;2022-12-16T03:29:20;45.20;;;22.70;;
39176;SDS011;24904;52.208;21.192;2022-12-16T03:34:33;47.00;;;24.00;;
39176;SDS011;24904;52.208;21.192;2022-12-16T03:39:42;45.80;;;22.30;;
39176;SDS011;24904;52.208;21.192;2022-12-16T03:44:49;48.80;;;23.80;;
39176;SDS011;24904;52.208;21.192;2022-12-16T03:49:54;45.60;;;22.70;;
39176;SDS011;24904;52.208;21.192;2022-12-16T03:54:59;49.90;;;22.70;;
39176;SDS011;24904;52.208;21.192;2022-12-16T04:00:05;44.90;;;21.90;;
39176;SDS011;24904;52.208;21.192;2022-12-16T04:05:15;45.20;;;22.30;;
39176;SDS011;24904;52.208;21.192;2022-12-16T04:10:20;53.30;;;23.40;;
39176;SDS011;24904;52.208;21.192;2022-12-16T04:15:39;43.50;;;21.90;;
39176;SDS011;24904;52.208;21.192;2022-12-16T04:27:36;50.90;;;23.50;;
39176;SDS011;24904;52.208;21.192;2022-12-16T04:32:39;50.50;;;25.20;;
39176;SDS011;24904;52.208;21.192;2022-12-16T04:38:00;49.40;;;23.10;;
39176;SDS011;24904;52.208;21.192;2022-12-16T04:43:22;50.00;;;24.20;;
39176;SDS011;24904;52.208;21.192;2022-12-16T04:48:43;50.10;;;24.60;;
39176;SDS011;24904;52.208;21.192;2022-12-16T04:54:04;45.90;;;23.50;;
39176;SDS011;24904;52.208;21.192;2022-12-16T04:59:25;52.60;;;26.30;;
39176;SDS011;24904;52.208;21.192;2022-12-16T05:04:46;52.10;;;24.50;;
39176;SDS011;24904;52.208;21.192;2022-12-16T05:10:08;52.50;;;26.00;;
39176;SDS011;24904;52.208;21.192;2022-12-16T05:15:29;51.10;;;25.70;;
39176;SDS011;24904;52.208;21.192;2022-12-16T05:20:49;53.10;;;24.50;;
39176;SDS011;24904;52.208;21.192;2022-12-16T05:26:11;52.70;;;23.40;;
39176;SDS011;24904;52.208;21.192;2022-12-16T05:31:32;60.40;;;27.50;;
39176;SDS011;24904;52.208;21.192;2022-12-16T05:36:53;50.30;;;25.30;;
39176;SDS011;24904;52.208;21.192;2022-12-16T05:42:22;53.50;;;25.50;;
39176;SDS011;24904;52.208;21.192;2022-12-16T05:47:46;57.10;;;25.00;;
39176;SDS011;24904;52.208;21.192;2022-12-16T05:53:08;52.30;;;24.60;;
39176;SDS011;24904;52.208;21.192;2022-12-16T05:58:29;58.90;;;26.60;;
39176;SDS011;24904;52.208;21.192;2022-12-16T06:03:50;60.00;;;26.60;;
39176;SDS011;24904;52.208;21.192;2022-12-16T06:09:12;55.10;;;25.30;;
39176;SDS011;24904;52.208;21.192;2022-12-16T06:14:32;57.20;;;25.90;;
39176;SDS011;24904;52.208;21.192;2022-12-16T06:19:54;53.60;;;26.20;;
39176;SDS011;24904;52.208;21.192;2022-12-16T06:25:14;61.00;;;28.20;;
39176;SDS011;24904;52.208;21.192;2022-12-16T06:30:35;56.40;;;25.60;;
39176;SDS011;24904;52.208;21.192;2022-12-16T06:35:57;62.70;;;29.80;;
39176;SDS011;24904;52.208;21.192;2022-12-16T06:41:17;57.90;;;26.80;;
39176;SDS011;24904;52.208;21.192;2022-12-16T06:46:38;52.60;;;24.60;;
39176;SDS011;24904;52.208;21.192;2022-12-16T06:51:59;56.70;;;25.60;;
39176;SDS011;24904;52.208;21.192;2022-12-16T06:57:20;65.00;;;29.20;;
39176;SDS011;24904;52.208;21.192;2022-12-16T07:02:41;63.00;;;29.30;;
39176;SDS011;24904;52.208;21.192;2022-12-16T07:08:03;56.40;;;26.30;;
39176;SDS011;24904;52.208;21.192;2022-12-16T07:13:24;62.90;;;30.00;;
39176;SDS011;24904;52.208;21.192;2022-12-16T07:18:45;59.10;;;28.10;;
39176;SDS011;24904;52.208;21.192;2022-12-16T07:25:19;60.10;;;28.80;;
39176;SDS011;24904;52.208;21.192;2022-12-16T07:30:41;61.20;;;29.00;;
39176;SDS011;24904;52.208;21.192;2022-12-16T07:36:03;57.70;;;28.80;;
39176;SDS011;24904;52.208;21.192;2022-12-16T07:41:34;66.60;;;30.50;;
39176;SDS011;24904;52.208;21.192;2022-12-16T07:46:55;60.40;;;28.50;;
39176;SDS011;24904;52.208;21.192;2022-12-16T07:52:16;57.00;;;26.10;;
39176;SDS011;24904;52.208;21.192;2022-12-16T07:57:37;65.70;;;30.00;;
39176;SDS011;24904;52.208;21.192;2022-12-16T08:02:58;56.80;;;25.80;;
39176;SDS011;24904;52.208;21.192;2022-12-16T08:08:19;58.50;;;26.80;;
39176;SDS011;24904;52.208;21.192;2022-12-16T08:13:40;64.80;;;29.30;;
39176;SDS011;24904;52.208;21.192;2022-12-16T08:19:02;59.00;;;27.60;;
39176;SDS011;24904;52.208;21.192;2022-12-16T08:24:23;64.90;;;29.30;;
39176;SDS011;24904;52.208;21.192;2022-12-16T08:29:44;65.70;;;28.50;;
39176;SDS011;24904;52.208;21.192;2022-12-16T08:35:05;60.30;;;28.20;;
39176;SDS011;24904;52.208;21.192;2022-12-16T08:40:27;63.40;;;29.00;;
39176;SDS011;24904;52.208;21.192;2022-12-16T08:45:48;57.00;;;26.40;;
39176;SDS011;24904;52.208;21.192;2022-12-16T08:51:12;60.50;;;27.30;;
39176;SDS011;24904;52.208;21.192;2022-12-16T08:56:33;63.00;;;30.00;;
39176;SDS011;24904;52.208;21.192;2022-12-16T09:01:54;64.50;;;29.70;;
39176;SDS011;24904;52.208;21.192;2022-12-16T09:07:11;65.00;;;28.30;;
39176;SDS011;24904;52.208;21.192;2022-12-16T09:12:33;56.20;;;27.20;;
39176;SDS011;24904;52.208;21.192;2022-12-16T09:17:54;55.50;;;28.10;;
39176;SDS011;24904;52.208;21.192;2022-12-16T09:23:15;62.00;;;27.90;;
39176;SDS011;24904;52.208;21.192;2022-12-16T09:31:02;60.10;;;28.20;;
39176;SDS011;24904;52.208;21.192;2022-12-16T09:36:30;60.30;;;26.50;;
39176;SDS011;24904;52.208;21.192;2022-12-16T09:41:55;53.70;;;25.50;;
39176;SDS011;24904;52.208;21.192;2022-12-16T09:47:27;55.40;;;25.50;;
39176;SDS011;24904;52.208;21.192;2022-12-16T09:52:59;57.10;;;27.20;;
39176;SDS011;24904;52.208;21.192;2022-12-16T09:58:23;55.80;;;27.00;;
39176;SDS011;24904;52.208;21.192;2022-12-16T10:03:50;51.80;;;26.70;;
39176;SDS011;24904;52.208;21.192;2022-12-16T10:09:15;54.00;;;26.90;;
39176;SDS011;24904;52.208;21.192;2022-12-16T10:14:51;54.60;;;27.10;;
39176;SDS011;24904;52.208;21.192;2022-12-16T10:20:19;52.10;;;24.80;;
39176;SDS011;24904;52.208;21.192;2022-12-16T10:32:15;56.10;;;24.30;;
39176;SDS011;24904;52.208;21.192;2022-12-16T10:43:09;54.40;;;26.40;;
39176;SDS011;24904;52.208;21.192;2022-12-16T10:48:34;53.00;;;25.40;;
39176;SDS011;24904;52.208;21.192;2022-12-16T10:53:57;52.30;;;26.00;;
39176;SDS011;24904;52.208;21.192;2022-12-16T10:59:35;49.80;;;24.40;;
39176;SDS011;24904;52.208;21.192;2022-12-16T11:05:29;44.10;;;23.30;;
39176;SDS011;24904;52.208;21.192;2022-12-16T11:10:53;52.50;;;26.40;;
39176;SDS011;24904;52.208;21.192;2022-12-16T11:16:16;51.40;;;25.60;;
39176;SDS011;24904;52.208;21.192;2022-12-16T11:21:40;54.60;;;25.70;;
39176;SDS011;24904;52.208;21.192;2022-12-16T11:27:04;53.90;;;27.10;;
39176;SDS011;24904;52.208;21.192;2022-12-16T11:32:33;47.70;;;24.10;;
39176;SDS011;24904;52.208;21.192;2022-12-16T11:37:56;49.70;;;24.90;;
39176;SDS011;24904;52.208;21.192;2022-12-16T11:43:21;49.00;;;23.90;;
39176;SDS011;24904;52.208;21.192;2022-12-16T11:48:48;49.70;;;25.00;;
39176;SDS011;24904;52.208;21.192;2022-12-16T11:54:16;55.40;;;28.10;;
39176;SDS011;24904;52.208;21.192;2022-12-16T11:59:44;56.30;;;26.30;;
39176;SDS011;24904;52.208;21.192;2022-12-16T12:05:12;51.30;;;25.30;;
39176;SDS011;24904;52.208;21.192;2022-12-16T12:10:41;49.70;;;26.30;;
39176;SDS011;24904;52.208;21.192;2022-12-16T12:16:15;50.40;;;25.60;;
39176;SDS011;24904;52.208;21.192;2022-12-16T12:27:11;36.90;;;20.00;;
39176;SDS011;24904;52.208;21.192;2022-12-16T12:32:44;51.40;;;26.80;;
39176;SDS011;24904;52.208;21.192;2022-12-16T12:38:22;45.70;;;23.30;;
39176;SDS011;24904;52.208;21.192;2022-12-16T12:43:51;44.60;;;22.80;;
39176;SDS011;24904;52.208;21.192;2022-12-16T12:49:31;52.50;;;25.20;;
39176;SDS011;24904;52.208;21.192;2022-12-16T12:55:07;43.10;;;23.00;;
39176;SDS011;24904;52.208;21.192;2022-12-16T13:00:38;43.70;;;23.00;;
39176;SDS011;24904;52.208;21.192;2022-12-16T13:06:05;55.30;;;26.30;;
39176;SDS011;24904;52.208;21.192;2022-12-16T13:11:29;48.70;;;23.90;;
39176;SDS011;24904;52.208;21.192;2022-12-16T13:22:28;45.10;;;24.10;;
39176;SDS011;24904;52.208;21.192;2022-12-16T13:27:55;45.20;;;22.60;;
39176;SDS011;24904;52.208;21.192;2022-12-16T13:33:22;43.90;;;21.60;;
39176;SDS011;24904;52.208;21.192;2022-12-16T13:38:48;45.20;;;22.70;;
39176;SDS011;24904;52.208;21.192;2022-12-16T13:44:13;42.60;;;21.90;;
39176;SDS011;24904;52.208;21.192;2022-12-16T13:55:59;47.10;;;23.30;;
39176;SDS011;24904;52.208;21.192;2022-12-16T14:01:26;49.70;;;25.00;;
39176;SDS011;24904;52.208;21.192;2022-12-16T14:06:59;52.10;;;26.00;;
39176;SDS011;24904;52.208;21.192;2022-12-16T14:18:13;38.50;;;21.40;;
39176;SDS011;24904;52.208;21.192;2022-12-16T14:23:47;43.80;;;23.00;;
39176;SDS011;24904;52.208;21.192;2022-12-16T14:29:17;49.80;;;25.30;;
39176;SDS011;24904;52.208;21.192;2022-12-16T14:34:43;44.60;;;24.90;;
39176;SDS011;24904;52.208;21.192;2022-12-16T14:40:18;51.40;;;24.80;;
39176;SDS011;24904;52.208;21.192;2022-12-16T14:45:46;43.30;;;22.70;;
39176;SDS011;24904;52.208;21.192;2022-12-16T14:51:25;49.00;;;23.90;;
39176;SDS011;24904;52.208;21.192;2022-12-16T14:56:49;52.30;;;24.10;;
39176;SDS011;24904;52.208;21.192;2022-12-16T15:09:33;48.20;;;24.10;;
39176;SDS011;24904;52.208;21.192;2022-12-16T15:14:59;42.40;;;21.00;;
39176;SDS011;24904;52.208;21.192;2022-12-16T15:20:28;49.90;;;23.80;;
39176;SDS011;24904;52.208;21.192;2022-12-16T15:25:54;43.80;;;20.90;;
39176;SDS011;24904;52.208;21.192;2022-12-16T15:31:26;44.10;;;21.70;;
39176;SDS011;24904;52.208;21.192;2022-12-16T15:36:52;39.20;;;21.20;;
39176;SDS011;24904;52.208;21.192;2022-12-16T15:42:19;43.30;;;21.80;;
39176;SDS011;24904;52.208;21.192;2022-12-16T15:47:47;49.20;;;25.30;;
39176;SDS011;24904;52.208;21.192;2022-12-16T16:00:20;45.90;;;23.90;;
39176;SDS011;24904;52.208;21.192;2022-12-16T16:05:44;41.80;;;21.90;;
39176;SDS011;24904;52.208;21.192;2022-12-16T16:11:05;47.70;;;23.90;;
39176;SDS011;24904;52.208;21.192;2022-12-16T16:16:27;39.40;;;20.50;;
39176;SDS011;24904;52.208;21.192;2022-12-16T16:21:49;41.30;;;22.00;;
39176;SDS011;24904;52.208;21.192;2022-12-16T16:27:11;41.20;;;21.20;;
39176;SDS011;24904;52.208;21.192;2022-12-16T16:32:33;38.00;;;19.80;;
39176;SDS011;24904;52.208;21.192;2022-12-16T16:37:54;43.60;;;22.50;;
39176;SDS011;24904;52.208;21.192;2022-12-16T16:43:15;38.10;;;20.40;;
39176;SDS011;24904;52.208;21.192;2022-12-16T16:48:37;44.90;;;22.30;;
39176;SDS011;24904;52.208;21.192;2022-12-16T16:53:58;36.10;;;19.30;;
39176;SDS011;24904;52.208;21.192;2022-12-16T16:59:21;42.70;;;21.90;;
39176;SDS011;24904;52.208;21.192;2022-12-16T17:04:42;44.90;;;21.50;;
39176;SDS011;24904;52.208;21.192;2022-12-16T17:10:04;35.40;;;18.50;;
39176;SDS011;24904;52.208;21.192;2022-12-16T17:15:27;41.10;;;21.30;;
39176;SDS011;24904;52.208;21.192;2022-12-16T17:20:51;40.40;;;22.20;;
39176;SDS011;24904;52.208;21.192;2022-12-16T17:26:12;37.10;;;18.00;;
39176;SDS011;24904;52.208;21.192;2022-12-16T17:31:33;37.20;;;18.90;;
39176;SDS011;24904;52.208;21.192;2022-12-16T17:37:03;37.60;;;19.50;;
39176;SDS011;24904;52.208;21.192;2022-12-16T17:42:25;40.30;;;20.80;;
39176;SDS011;24904;52.208;21.192;2022-12-16T17:47:46;39.30;;;20.30;;
39176;SDS011;24904;52.208;21.192;2022-12-16T17:53:07;34.10;;;19.00;;
39176;SDS011;24904;52.208;21.192;2022-12-16T17:58:31;41.00;;;21.20;;
39176;SDS011;24904;52.208;21.192;2022-12-16T18:03:53;36.30;;;18.30;;
39176;SDS011;24904;52.208;21.192;2022-12-16T18:09:14;38.90;;;19.50;;
39176;SDS011;24904;52.208;21.192;2022-12-16T18:14:35;38.90;;;19.10;;
39176;SDS011;24904;52.208;21.192;2022-12-16T18:19:56;40.20;;;20.50;;
39176;SDS011;24904;52.208;21.192;2022-12-16T18:25:17;38.50;;;21.10;;
39176;SDS011;24904;52.208;21.192;2022-12-16T18:30:38;38.10;;;19.80;;
39176;SDS011;24904;52.208;21.192;2022-12-16T18:35:59;37.70;;;18.20;;
39176;SDS011;24904;52.208;21.192;2022-12-16T18:41:21;32.60;;;18.10;;
39176;SDS011;24904;52.208;21.192;2022-12-16T18:46:42;37.10;;;19.10;;
39176;SDS011;24904;52.208;21.192;2022-12-16T18:52:05;35.30;;;18.80;;
39176;SDS011;24904;52.208;21.192;2022-12-16T18:57:26;36.00;;;16.50;;
39176;SDS011;24904;52.208;21.192;2022-12-16T19:02:46;37.00;;;18.30;;
39176;SDS011;24904;52.208;21.192;2022-12-16T19:08:09;33.60;;;17.00;;
39176;SDS011;24904;52.208;21.192;2022-12-16T19:13:30;36.30;;;19.40;;
39176;SDS011;24904;52.208;21.192;2022-12-16T19:18:51;35.70;;;19.50;;
39176;SDS011;24904;52.208;21.192;2022-12-16T19:24:12;32.40;;;17.60;;
39176;SDS011;24904;52.208;21.192;2022-12-16T19:29:33;35.40;;;18.00;;
39176;SDS011;24904;52.208;21.192;2022-12-16T19:34:54;33.50;;;17.80;;
39176;SDS011;24904;52.208;21.192;2022-12-16T19:40:15;38.90;;;18.90;;
39176;SDS011;24904;52.208;21.192;2022-12-16T19:45:37;37.80;;;18.80;;
39176;SDS011;24904;52.208;21.192;2022-12-16T19:50:58;36.10;;;18.90;;
39176;SDS011;24904;52.208;21.192;2022-12-16T19:56:19;35.10;;;18.70;;
39176;SDS011;24904;52.208;21.192;2022-12-16T20:01:43;38.40;;;18.10;;
39176;SDS011;24904;52.208;21.192;2022-12-16T20:07:03;39.00;;;19.40;;
39176;SDS011;24904;52.208;21.192;2022-12-16T20:12:25;35.50;;;19.10;;
39176;SDS011;24904;52.208;21.192;2022-12-16T20:17:48;40.40;;;20.10;;
39176;SDS011;24904;52.208;21.192;2022-12-16T20:23:09;34.30;;;18.50;;
39176;SDS011;24904;52.208;21.192;2022-12-16T20:28:31;37.80;;;19.50;;
39176;SDS011;24904;52.208;21.192;2022-12-16T20:33:52;38.80;;;20.50;;
39176;SDS011;24904;52.208;21.192;2022-12-16T20:39:14;40.00;;;21.10;;
39176;SDS011;24904;52.208;21.192;2022-12-16T20:44:35;41.40;;;20.00;;
39176;SDS011;24904;52.208;21.192;2022-12-16T20:49:56;42.70;;;20.60;;
39176;SDS011;24904;52.208;21.192;2022-12-16T20:55:17;41.20;;;22.20;;
39176;SDS011;24904;52.208;21.192;2022-12-16T21:00:50;41.60;;;21.20;;
39176;SDS011;24904;52.208;21.192;2022-12-16T21:06:12;41.70;;;21.40;;
39176;SDS011;24904;52.208;21.192;2022-12-16T21:11:33;43.50;;;20.90;;
39176;SDS011;24904;52.208;21.192;2022-12-16T21:16:54;41.10;;;21.00;;
39176;SDS011;24904;52.208;21.192;2022-12-16T21:22:16;38.20;;;20.10;;
39176;SDS011;24904;52.208;21.192;2022-12-16T21:27:37;40.70;;;20.20;;
39176;SDS011;24904;52.208;21.192;2022-12-16T21:32:58;38.70;;;19.20;;
39176;SDS011;24904;52.208;21.192;2022-12-16T21:38:19;41.00;;;21.50;;
39176;SDS011;24904;52.208;21.192;2022-12-16T21:43:40;44.70;;;23.50;;
39176;SDS011;24904;52.208;21.192;2022-12-16T21:49:01;41.00;;;21.30;;
39176;SDS011;24904;52.208;21.192;2022-12-16T21:54:22;44.90;;;21.80;;
39176;SDS011;24904;52.208;21.192;2022-12-16T21:59:45;42.70;;;23.10;;
39176;SDS011;24904;52.208;21.192;2022-12-16T22:05:11;44.40;;;23.40;;
39176;SDS011;24904;52.208;21.192;2022-12-16T22:10:32;50.60;;;24.70;;
39176;SDS011;24904;52.208;21.192;2022-12-16T22:15:54;40.90;;;21.70;;
39176;SDS011;24904;52.208;21.192;2022-12-16T22:21:16;43.80;;;22.60;;
39176;SDS011;24904;52.208;21.192;2022-12-16T22:26:37;42.70;;;22.30;;
39176;SDS011;24904;52.208;21.192;2022-12-16T22:31:58;52.30;;;24.80;;
39176;SDS011;24904;52.208;21.192;2022-12-16T22:37:19;42.30;;;21.40;;
39176;SDS011;24904;52.208;21.192;2022-12-16T22:42:40;46.60;;;22.50;;
39176;SDS011;24904;52.208;21.192;2022-12-16T22:48:01;48.60;;;24.20;;
39176;SDS011;24904;52.208;21.192;2022-12-16T22:53:24;50.00;;;24.60;;
39176;SDS011;24904;52.208;21.192;2022-12-16T22:58:45;49.50;;;23.90;;
39176;SDS011;24904;52.208;21.192;2022-12-16T23:04:07;51.90;;;25.00;;
39176;SDS011;24904;52.208;21.192;2022-12-16T23:09:28;50.00;;;23.80;;
39176;SDS011;24904;52.208;21.192;2022-12-16T23:14:53;49.10;;;26.30;;
39176;SDS011;24904;52.208;21.192;2022-12-16T23:20:14;47.90;;;24.00;;
39176;SDS011;24904;52.208;21.192;2022-12-16T23:25:35;47.20;;;23.70;;
39176;SDS011;24904;52.208;21.192;2022-12-16T23:30:56;47.30;;;23.20;;
39176;SDS011;24904;52.208;21.192;2022-12-16T23:36:18;47.20;;;24.00;;
39176;SDS011;24904;52.208;21.192;2022-12-16T23:41:39;48.30;;;23.10;;
39176;SDS011;24904;52.208;21.192;2022-12-16T23:47:37;47.10;;;23.30;;
39176;SDS011;24904;52.208;21.192;2022-12-16T23:53:02;42.60;;;22.70;;
39176;SDS011;24904;52.208;21.192;2022-12-16T23:58:23;41.90;;;21.30;;
